Jonni Ritscher — A8JT7 — position and weather

sailwx.info

Track history (hours):
 
Tides and Currents Weather Stations Pressure Air Temp Water Temp Dewpoint Dewpoint Depression Visibility Wind Speed Wind Dir Waves Ship Positions

Jonni Ritscher

Last reported at 2016-May-27 04:33 UTC. Time now 2016-May-27 06:32 UTC.
Position N 55°43' E 015°45'.

Length 178 m; draft 10.3 m.

Type: Ship. MMSI: 636091136.

Date/timePositionNaut miles runAvg speedWind from/ knotsBaromVisibWave heightAir tempDewpointWater temp
2016-May-27 04:33N 55°43' E 015°45'1918.9
2016-May-27 03:33N 55°35' E 015°14'1717.2
2016-May-27 02:33N 55°27' E 014°47'1717.5
2016-May-27 01:33N 55°15' E 014°25'1717.5
2016-May-27 00:33N 55°01' E 014°07'1817.8
2016-May-26 23:33N 54°55' E 013°37'1817.6
2016-May-26 22:33N 54°50' E 013°08'1717.3
2016-May-26 21:33N 54°44' E 012°40'1716.9
2016-May-26 20:33N 54°34' E 012°17'1514.6
2016-May-26 19:33N 54°25' E 011°57'1616.3
2016-May-26 18:33N 54°29' E 011°30'1716.7
2016-May-26 17:33N 54°35' E 011°03'1413.9
2016-May-26 16:34N 54°46' E 010°48'1615.5
2016-May-26 15:33N 55°00' E 010°59'1515.2
2016-May-26 14:33N 55°15' E 011°05'8216.4
2016-May-26 09:33N 56°35' E 011°41'1817.9
2016-May-26 08:34N 56°52' E 011°47'2019.6
2016-May-26 07:34N 57°11' E 011°35'1919.4
2016-May-26 06:33N 57°29' E 011°22'1919.2
2016-May-26 05:33N 57°42' E 010°56'1817.6
2016-May-26 04:33N 57°48' E 010°25'15318.2
2016-May-25 20:09N 55°51' E 007°25'1219.0
2016-May-25 19:33N 55°40' E 007°20'1818.1
2016-May-25 18:33N 55°22' E 007°23'2019.5
2016-May-25 17:33N 55°03' E 007°26'2020.1
2016-May-25 16:33N 54°43' E 007°29'2019.9
2016-May-25 15:33N 54°23' E 007°31'1919.2
2016-May-25 14:33N 54°04' E 007°36'1514.5
2016-May-25 13:33N 53°52' E 007°50'1515.0
2016-May-25 12:33N 53°40' E 008°06'5 5.4
2016-May-25 11:33N 53°35' E 008°09'0 0.0
2016-May-25 10:30N 53°35' E 008°09'0 0.0
2016-May-25 09:32N 53°35' E 008°09'0 0.0
2016-May-25 08:32N 53°35' E 008°09'0 0.0
2016-May-25 07:31N 53°35' E 008°09'0 0.0
2016-May-25 06:28N 53°35' E 008°09'0 0.0
2016-May-25 05:28N 53°35' E 008°09'0 0.0
2016-May-25 04:33N 53°35' E 008°09'1 1.0
2016-May-25 03:33N 53°36' E 008°09'1010.2
2016-May-25 02:33N 53°46' E 008°03'6 5.8
2016-May-25 01:33N 53°51' E 007°60'1717.2
2016-May-25 00:33N 53°40' E 008°22'7 7.1
2016-May-24 23:31N 53°35' E 008°31'0 0.0
2016-May-24 22:31N 53°35' E 008°31'0 0.0
2016-May-24 21:33N 53°35' E 008°31'0 0.0
2016-May-24 20:33N 53°35' E 008°31'0 0.0
2016-May-24 19:32N 53°35' E 008°31'0 0.0
2016-May-24 18:32N 53°35' E 008°31'0 0.0
2016-May-24 17:32N 53°35' E 008°31'0 0.0
2016-May-24 16:31N 53°35' E 008°31'0 0.0
2016-May-24 15:31N 53°35' E 008°31'0 0.0
2016-May-24 14:33N 53°35' E 008°31'0 0.0
2016-May-24 13:30N 53°35' E 008°31'0 0.0
2016-May-24 12:32N 53°35' E 008°31'0 0.0
2016-May-24 11:32N 53°35' E 008°31'0 0.0
2016-May-24 10:32N 53°35' E 008°31'0 0.0
2016-May-24 09:31N 53°35' E 008°31'0 0.0
2016-May-24 08:31N 53°35' E 008°31'0 0.0
2016-May-24 07:33N 53°35' E 008°31'0 0.0
2016-May-24 06:33N 53°35' E 008°31'0 0.0
2016-May-24 05:32N 53°35' E 008°31'0 0.4
2016-May-24 04:33N 53°36' E 008°31'1212.1
2016-May-24 03:33N 53°44' E 008°16'1615.5
2016-May-24 02:33N 53°52' E 007°53'5 4.5
2016-May-24 01:32N 53°54' E 007°47'0 0.0
2016-May-24 00:31N 53°54' E 007°47'0 0.0
2016-May-23 23:31N 53°54' E 007°47'0 0.0
2016-May-23 22:33N 53°54' E 007°47'0 0.0
2016-May-23 21:33N 53°54' E 007°47'0 0.0
2016-May-23 20:33N 53°54' E 007°47'0 0.0
2016-May-23 19:32N 53°54' E 007°47'0 0.0
2016-May-23 18:32N 53°54' E 007°47'0 0.0
2016-May-23 17:31N 53°54' E 007°47'0 0.0
2016-May-23 16:31N 53°54' E 007°47'0 0.0
2016-May-23 15:30N 53°54' E 007°46'0 0.0
2016-May-23 14:33N 53°54' E 007°47'0 0.1
2016-May-23 13:33N 53°54' E 007°47'0 0.0
2016-May-23 12:32N 53°54' E 007°47'0 0.1
2016-May-23 11:29N 53°54' E 007°47'0 0.0
2016-May-23 10:31N 53°54' E 007°47'0 0.0
2016-May-23 09:25N 53°54' E 007°47'0 0.0
2016-May-23 08:27N 53°54' E 007°47'0 0.1
2016-May-23 07:33N 53°54' E 007°47'0 0.1
2016-May-23 06:33N 53°54' E 007°46'0 0.0
2016-May-23 05:32N 53°54' E 007°46'0 0.0
2016-May-23 04:32N 53°54' E 007°46'0 0.0
2016-May-23 03:31N 53°54' E 007°46'0 0.0
2016-May-23 02:31N 53°54' E 007°46'0 0.0
2016-May-23 01:30N 53°54' E 007°46'0 0.0
2016-May-23 00:33N 53°54' E 007°47'0 0.0
2016-May-22 23:33N 53°54' E 007°47'0 0.0
2016-May-22 22:26N 53°54' E 007°47'0 0.0
2016-May-22 21:32N 53°54' E 007°47'0 0.0
2016-May-22 20:22N 53°54' E 007°47'0 0.0
2016-May-22 19:31N 53°54' E 007°47'0 0.0
2016-May-22 18:33N 53°54' E 007°46'0 0.0
2016-May-22 17:27N 53°54' E 007°46'0 0.0
2016-May-22 16:33N 53°54' E 007°46'0 0.1
2016-May-22 15:32N 53°54' E 007°47'0 0.0
2016-May-22 14:32N 53°54' E 007°46'0 0.1
2016-May-22 13:31N 53°54' E 007°47'0 0.0
2016-May-22 12:31N 53°54' E 007°47'0 0.1
2016-May-22 11:27N 53°54' E 007°47'0 0.0
2016-May-22 10:33N 53°54' E 007°47'0 0.0
2016-May-22 09:32N 53°54' E 007°47'0 0.0
2016-May-22 08:32N 53°54' E 007°47'0 0.1
2016-May-22 07:26N 53°54' E 007°47'0 0.1
2016-May-22 06:31N 53°54' E 007°47'0 0.0
2016-May-22 05:31N 53°54' E 007°47'0 0.0
2016-May-22 04:33N 53°54' E 007°47'0 0.0
2016-May-22 03:33N 53°54' E 007°47'0 0.0
2016-May-22 02:33N 53°54' E 007°47'0 0.0
2016-May-22 01:32N 53°54' E 007°47'0 0.0
2016-May-22 00:32N 53°54' E 007°47'0 0.0
2016-May-21 23:31N 53°54' E 007°47'0 0.0
2016-May-21 22:31N 53°54' E 007°47'0 0.0
2016-May-21 21:33N 53°54' E 007°47'0 0.0
2016-May-21 20:33N 53°54' E 007°47'0 0.0
2016-May-21 19:29N 53°54' E 007°47'0 0.1
2016-May-21 18:32N 53°54' E 007°47'0 0.1
2016-May-21 17:32N 53°54' E 007°47'0 0.0
2016-May-21 16:31N 53°54' E 007°47'0 0.0
2016-May-21 15:31N 53°54' E 007°47'0 0.0
2016-May-21 14:33N 53°54' E 007°47'0 0.0
2016-May-21 13:33N 53°54' E 007°47'0 0.1
2016-May-21 12:32N 53°54' E 007°47'0 0.0
2016-May-21 11:32N 53°54' E 007°47'0 0.0
2016-May-21 10:32N 53°54' E 007°47'0 0.0
2016-May-21 09:31N 53°54' E 007°47'5 4.7
2016-May-21 08:33N 53°56' E 007°40'1817.9
2016-May-21 07:34N 54°13' E 007°28'2019.6
2016-May-21 06:34N 54°32' E 007°29'1919.4
2016-May-21 05:33N 54°52' E 007°28'1919.2
2016-May-21 04:34N 55°11' E 007°26'1918.9
2016-May-21 03:33N 55°30' E 007°22'2018.1
2016-May-21 02:28N 55°49' E 007°24'15316.4
2016-May-20 17:11N 57°50' E 010°15'1118.4
2016-May-20 16:33N 57°50' E 010°37'1818.4
2016-May-20 15:33N 57°39' E 011°04'1818.0
2016-May-20 14:33N 57°26' E 011°28'2020.1
2016-May-20 13:33N 57°07' E 011°40'2020.1
2016-May-20 12:33N 56°48' E 011°52'8816.6
2016-May-20 07:14N 55°24' E 011°00'1217.8
2016-May-20 06:34N 55°13' E 011°07'1918.7
2016-May-20 05:33N 54°56' E 010°53'1717.2
2016-May-20 04:33N 54°39' E 010°53'1918.9
2016-May-20 03:33N 54°32' E 011°23'2019.5
2016-May-20 02:33N 54°26' E 011°55'1616.0
2016-May-20 01:33N 54°36' E 012°17'1918.7
2016-May-20 00:33N 54°46' E 012°44'2019.4
2016-May-19 23:33N 54°54' E 013°15'1919.7
2016-May-19 22:34N 55°01' E 013°47'1918.9
2016-May-19 21:33N 55°12' E 014°14'2019.8
2016-May-19 20:34N 55°27' E 014°37'2019.8
2016-May-19 19:33N 55°37' E 015°07'2019.9
2016-May-19 18:33N 55°47' E 015°37'31519.2
2016-May-19 02:11N 59°31' E 022°30'1219.3
2016-May-19 01:33N 59°34' E 022°53'2019.5
2016-May-19 00:33N 59°40' E 023°31'2019.7
2016-May-18 23:32N 59°45' E 024°08'6319.6
2016-May-18 20:21N 60°00' E 026°10'1519.4
2016-May-18 19:33N 60°09' E 026°35'1515.4
2016-May-18 18:34N 60°22' E 026°52'3 3.3
2016-May-18 17:33N 60°25' E 026°55'0 0.0
2016-May-18 16:32N 60°25' E 026°55'0 0.1
2016-May-18 15:32N 60°25' E 026°55'0 0.1
2016-May-18 14:31N 60°25' E 026°55'0 0.0
2016-May-18 13:31N 60°25' E 026°55'0 0.0
2016-May-18 12:33N 60°25' E 026°55'0 0.0
2016-May-18 11:33N 60°25' E 026°55'0 0.0
2016-May-18 10:33N 60°25' E 026°55'0 0.0
2016-May-18 09:32N 60°25' E 026°55'0 0.0
2016-May-18 08:32N 60°25' E 026°55'0 0.0
2016-May-18 07:31N 60°25' E 026°55'0 0.0
2016-May-18 06:31N 60°25' E 026°55'0 0.0
2016-May-18 05:33N 60°25' E 026°55'0 0.0
2016-May-18 04:33N 60°25' E 026°55'0 0.0
2016-May-18 03:32N 60°25' E 026°55'0 0.0
2016-May-18 02:32N 60°25' E 026°55'0 0.0
2016-May-18 01:32N 60°25' E 026°55'0 0.0
2016-May-18 00:31N 60°25' E 026°55'0 0.0
2016-May-17 23:31N 60°25' E 026°55'0 0.0
2016-May-17 22:33N 60°25' E 026°55'0 0.0
2016-May-17 21:33N 60°25' E 026°55'0 0.0
2016-May-17 20:32N 60°25' E 026°55'0 0.0
2016-May-17 19:32N 60°25' E 026°55'0 0.0
2016-May-17 18:33N 60°25' E 026°55'6 6.2
2016-May-17 17:33N 60°22' E 026°44'1413.6
2016-May-17 16:33N 60°13' E 026°24'6813.3
2016-May-17 11:25N 59°43' E 024°21'1314.7
2016-May-17 10:32N 59°39' E 023°56'1514.8
2016-May-17 09:33N 59°34' E 023°29'1614.9
2016-May-17 08:28N 59°29' E 022°59'  
Track history (hours):
 
Tides and Currents Weather Stations Pressure Air Temp Water Temp Dewpoint Dewpoint Depression Visibility Wind Speed Wind Dir Waves Ship Positions

Jonni Ritscher

Last reported at 2016-May-27 04:33 UTC. Time now 2016-May-27 06:32 UTC.
Position N 55°43' E 015°45'.

Length 178 m; draft 10.3 m.

Type: Ship. MMSI: 636091136.

Date/timePositionNaut miles runAvg speedWind from/ knotsBaromVisibWave heightAir tempDewpointWater temp
2016-May-27 04:33N 55°43' E 015°45'1918.9
2016-May-27 03:33N 55°35' E 015°14'1717.2
2016-May-27 02:33N 55°27' E 014°47'1717.5
2016-May-27 01:33N 55°15' E 014°25'1717.5
2016-May-27 00:33N 55°01' E 014°07'1817.8
2016-May-26 23:33N 54°55' E 013°37'1817.6
2016-May-26 22:33N 54°50' E 013°08'1717.3
2016-May-26 21:33N 54°44' E 012°40'1716.9
2016-May-26 20:33N 54°34' E 012°17'1514.6
2016-May-26 19:33N 54°25' E 011°57'1616.3
2016-May-26 18:33N 54°29' E 011°30'1716.7
2016-May-26 17:33N 54°35' E 011°03'1413.9
2016-May-26 16:34N 54°46' E 010°48'1615.5
2016-May-26 15:33N 55°00' E 010°59'1515.2
2016-May-26 14:33N 55°15' E 011°05'8216.4
2016-May-26 09:33N 56°35' E 011°41'1817.9
2016-May-26 08:34N 56°52' E 011°47'2019.6
2016-May-26 07:34N 57°11' E 011°35'1919.4
2016-May-26 06:33N 57°29' E 011°22'1919.2
2016-May-26 05:33N 57°42' E 010°56'1817.6
2016-May-26 04:33N 57°48' E 010°25'15318.2
2016-May-25 20:09N 55°51' E 007°25'1219.0
2016-May-25 19:33N 55°40' E 007°20'1818.1
2016-May-25 18:33N 55°22' E 007°23'2019.5
2016-May-25 17:33N 55°03' E 007°26'2020.1
2016-May-25 16:33N 54°43' E 007°29'2019.9
2016-May-25 15:33N 54°23' E 007°31'1919.2
2016-May-25 14:33N 54°04' E 007°36'1514.5
2016-May-25 13:33N 53°52' E 007°50'1515.0
2016-May-25 12:33N 53°40' E 008°06'5 5.4
2016-May-25 11:33N 53°35' E 008°09'0 0.0
2016-May-25 10:30N 53°35' E 008°09'0 0.0
2016-May-25 09:32N 53°35' E 008°09'0 0.0
2016-May-25 08:32N 53°35' E 008°09'0 0.0
2016-May-25 07:31N 53°35' E 008°09'0 0.0
2016-May-25 06:28N 53°35' E 008°09'0 0.0
2016-May-25 05:28N 53°35' E 008°09'0 0.0
2016-May-25 04:33N 53°35' E 008°09'1 1.0
2016-May-25 03:33N 53°36' E 008°09'1010.2
2016-May-25 02:33N 53°46' E 008°03'6 5.8
2016-May-25 01:33N 53°51' E 007°60'1717.2
2016-May-25 00:33N 53°40' E 008°22'7 7.1
2016-May-24 23:31N 53°35' E 008°31'0 0.0
2016-May-24 22:31N 53°35' E 008°31'0 0.0
2016-May-24 21:33N 53°35' E 008°31'0 0.0
2016-May-24 20:33N 53°35' E 008°31'0 0.0
2016-May-24 19:32N 53°35' E 008°31'0 0.0
2016-May-24 18:32N 53°35' E 008°31'0 0.0
2016-May-24 17:32N 53°35' E 008°31'0 0.0
2016-May-24 16:31N 53°35' E 008°31'0 0.0
2016-May-24 15:31N 53°35' E 008°31'0 0.0
2016-May-24 14:33N 53°35' E 008°31'0 0.0
2016-May-24 13:30N 53°35' E 008°31'0 0.0
2016-May-24 12:32N 53°35' E 008°31'0 0.0
2016-May-24 11:32N 53°35' E 008°31'0 0.0
2016-May-24 10:32N 53°35' E 008°31'0 0.0
2016-May-24 09:31N 53°35' E 008°31'0 0.0
2016-May-24 08:31N 53°35' E 008°31'0 0.0
2016-May-24 07:33N 53°35' E 008°31'0 0.0
2016-May-24 06:33N 53°35' E 008°31'0 0.0
2016-May-24 05:32N 53°35' E 008°31'0 0.4
2016-May-24 04:33N 53°36' E 008°31'1212.1
2016-May-24 03:33N 53°44' E 008°16'1615.5
2016-May-24 02:33N 53°52' E 007°53'5 4.5
2016-May-24 01:32N 53°54' E 007°47'0 0.0
2016-May-24 00:31N 53°54' E 007°47'0 0.0
2016-May-23 23:31N 53°54' E 007°47'0 0.0
2016-May-23 22:33N 53°54' E 007°47'0 0.0
2016-May-23 21:33N 53°54' E 007°47'0 0.0
2016-May-23 20:33N 53°54' E 007°47'0 0.0
2016-May-23 19:32N 53°54' E 007°47'0 0.0
2016-May-23 18:32N 53°54' E 007°47'0 0.0
2016-May-23 17:31N 53°54' E 007°47'0 0.0
2016-May-23 16:31N 53°54' E 007°47'0 0.0
2016-May-23 15:30N 53°54' E 007°46'0 0.0
2016-May-23 14:33N 53°54' E 007°47'0 0.1
2016-May-23 13:33N 53°54' E 007°47'0 0.0
2016-May-23 12:32N 53°54' E 007°47'0 0.1
2016-May-23 11:29N 53°54' E 007°47'0 0.0
2016-May-23 10:31N 53°54' E 007°47'0 0.0
2016-May-23 09:25N 53°54' E 007°47'0 0.0
2016-May-23 08:27N 53°54' E 007°47'0 0.1
2016-May-23 07:33N 53°54' E 007°47'0 0.1
2016-May-23 06:33N 53°54' E 007°46'0 0.0
2016-May-23 05:32N 53°54' E 007°46'0 0.0
2016-May-23 04:32N 53°54' E 007°46'0 0.0
2016-May-23 03:31N 53°54' E 007°46'0 0.0
2016-May-23 02:31N 53°54' E 007°46'0 0.0
2016-May-23 01:30N 53°54' E 007°46'0 0.0
2016-May-23 00:33N 53°54' E 007°47'0 0.0
2016-May-22 23:33N 53°54' E 007°47'0 0.0
2016-May-22 22:26N 53°54' E 007°47'0 0.0
2016-May-22 21:32N 53°54' E 007°47'0 0.0
2016-May-22 20:22N 53°54' E 007°47'0 0.0
2016-May-22 19:31N 53°54' E 007°47'0 0.0
2016-May-22 18:33N 53°54' E 007°46'0 0.0
2016-May-22 17:27N 53°54' E 007°46'0 0.0
2016-May-22 16:33N 53°54' E 007°46'0 0.1
2016-May-22 15:32N 53°54' E 007°47'0 0.0
2016-May-22 14:32N 53°54' E 007°46'0 0.1
2016-May-22 13:31N 53°54' E 007°47'0 0.0
2016-May-22 12:31N 53°54' E 007°47'0 0.1
2016-May-22 11:27N 53°54' E 007°47'0 0.0
2016-May-22 10:33N 53°54' E 007°47'0 0.0
2016-May-22 09:32N 53°54' E 007°47'0 0.0
2016-May-22 08:32N 53°54' E 007°47'0 0.1
2016-May-22 07:26N 53°54' E 007°47'0 0.1
2016-May-22 06:31N 53°54' E 007°47'0 0.0
2016-May-22 05:31N 53°54' E 007°47'0 0.0
2016-May-22 04:33N 53°54' E 007°47'0 0.0
2016-May-22 03:33N 53°54' E 007°47'0 0.0
2016-May-22 02:33N 53°54' E 007°47'0 0.0
2016-May-22 01:32N 53°54' E 007°47'0 0.0
2016-May-22 00:32N 53°54' E 007°47'0 0.0
2016-May-21 23:31N 53°54' E 007°47'0 0.0
2016-May-21 22:31N 53°54' E 007°47'0 0.0
2016-May-21 21:33N 53°54' E 007°47'0 0.0
2016-May-21 20:33N 53°54' E 007°47'0 0.0
2016-May-21 19:29N 53°54' E 007°47'0 0.1
2016-May-21 18:32N 53°54' E 007°47'0 0.1
2016-May-21 17:32N 53°54' E 007°47'0 0.0
2016-May-21 16:31N 53°54' E 007°47'0 0.0
2016-May-21 15:31N 53°54' E 007°47'0 0.0
2016-May-21 14:33N 53°54' E 007°47'0 0.0
2016-May-21 13:33N 53°54' E 007°47'0 0.1
2016-May-21 12:32N 53°54' E 007°47'0 0.0
2016-May-21 11:32N 53°54' E 007°47'0 0.0
2016-May-21 10:32N 53°54' E 007°47'0 0.0
2016-May-21 09:31N 53°54' E 007°47'5 4.7
2016-May-21 08:33N 53°56' E 007°40'1817.9
2016-May-21 07:34N 54°13' E 007°28'2019.6
2016-May-21 06:34N 54°32' E 007°29'1919.4
2016-May-21 05:33N 54°52' E 007°28'1919.2
2016-May-21 04:34N 55°11' E 007°26'1918.9
2016-May-21 03:33N 55°30' E 007°22'2018.1
2016-May-21 02:28N 55°49' E 007°24'15316.4
2016-May-20 17:11N 57°50' E 010°15'1118.4
2016-May-20 16:33N 57°50' E 010°37'1818.4
2016-May-20 15:33N 57°39' E 011°04'1818.0
2016-May-20 14:33N 57°26' E 011°28'2020.1
2016-May-20 13:33N 57°07' E 011°40'2020.1
2016-May-20 12:33N 56°48' E 011°52'8816.6
2016-May-20 07:14N 55°24' E 011°00'1217.8
2016-May-20 06:34N 55°13' E 011°07'1918.7
2016-May-20 05:33N 54°56' E 010°53'1717.2
2016-May-20 04:33N 54°39' E 010°53'1918.9
2016-May-20 03:33N 54°32' E 011°23'2019.5
2016-May-20 02:33N 54°26' E 011°55'1616.0
2016-May-20 01:33N 54°36' E 012°17'1918.7
2016-May-20 00:33N 54°46' E 012°44'2019.4
2016-May-19 23:33N 54°54' E 013°15'1919.7
2016-May-19 22:34N 55°01' E 013°47'1918.9
2016-May-19 21:33N 55°12' E 014°14'2019.8
2016-May-19 20:34N 55°27' E 014°37'2019.8
2016-May-19 19:33N 55°37' E 015°07'2019.9
2016-May-19 18:33N 55°47' E 015°37'31519.2
2016-May-19 02:11N 59°31' E 022°30'1219.3
2016-May-19 01:33N 59°34' E 022°53'2019.5
2016-May-19 00:33N 59°40' E 023°31'2019.7
2016-May-18 23:32N 59°45' E 024°08'6319.6
2016-May-18 20:21N 60°00' E 026°10'1519.4
2016-May-18 19:33N 60°09' E 026°35'1515.4
2016-May-18 18:34N 60°22' E 026°52'3 3.3
2016-May-18 17:33N 60°25' E 026°55'0 0.0
2016-May-18 16:32N 60°25' E 026°55'0 0.1
2016-May-18 15:32N 60°25' E 026°55'0 0.1
2016-May-18 14:31N 60°25' E 026°55'0 0.0
2016-May-18 13:31N 60°25' E 026°55'0 0.0
2016-May-18 12:33N 60°25' E 026°55'0 0.0
2016-May-18 11:33N 60°25' E 026°55'0 0.0
2016-May-18 10:33N 60°25' E 026°55'0 0.0
2016-May-18 09:32N 60°25' E 026°55'0 0.0
2016-May-18 08:32N 60°25' E 026°55'0 0.0
2016-May-18 07:31N 60°25' E 026°55'0 0.0
2016-May-18 06:31N 60°25' E 026°55'0 0.0
2016-May-18 05:33N 60°25' E 026°55'0 0.0
2016-May-18 04:33N 60°25' E 026°55'0 0.0
2016-May-18 03:32N 60°25' E 026°55'0 0.0
2016-May-18 02:32N 60°25' E 026°55'0 0.0
2016-May-18 01:32N 60°25' E 026°55'0 0.0
2016-May-18 00:31N 60°25' E 026°55'0 0.0
2016-May-17 23:31N 60°25' E 026°55'0 0.0
2016-May-17 22:33N 60°25' E 026°55'0 0.0
2016-May-17 21:33N 60°25' E 026°55'0 0.0
2016-May-17 20:32N 60°25' E 026°55'0 0.0
2016-May-17 19:32N 60°25' E 026°55'0 0.0
2016-May-17 18:33N 60°25' E 026°55'6 6.2
2016-May-17 17:33N 60°22' E 026°44'1413.6
2016-May-17 16:33N 60°13' E 026°24'6813.3
2016-May-17 11:25N 59°43' E 024°21'1314.7
2016-May-17 10:32N 59°39' E 023°56'1514.8
2016-May-17 09:33N 59°34' E 023°29'1614.9
2016-May-17 08:28N 59°29' E 022°59'  

Dump ship's entire track history